sensor_id;sensor_type;location;lat;lon;timestamp;P1;durP1;ratioP1;P2;durP2;ratioP2
12314;SDS011;23886;46.614;14.276;2022-10-03T00:00:24;5.50;;;3.57;;
12314;SDS011;23886;46.614;14.276;2022-10-03T00:05:54;5.73;;;3.20;;
12314;SDS011;23886;46.614;14.276;2022-10-03T00:08:35;6.37;;;3.13;;
12314;SDS011;23886;46.614;14.276;2022-10-03T00:11:21;5.60;;;3.20;;
12314;SDS011;23886;46.614;14.276;2022-10-03T00:13:57;5.63;;;3.10;;
12314;SDS011;23886;46.614;14.276;2022-10-03T00:16:32;6.07;;;3.87;;
12314;SDS011;23886;46.614;14.276;2022-10-03T00:19:10;3.60;;;2.90;;
12314;SDS011;23886;46.614;14.276;2022-10-03T00:21:51;4.70;;;3.20;;
12314;SDS011;23886;46.614;14.276;2022-10-03T00:24:31;7.87;;;3.30;;
12314;SDS011;23886;46.614;14.276;2022-10-03T00:27:06;4.17;;;3.20;;
12314;SDS011;23886;46.614;14.276;2022-10-03T00:29:43;11.10;;;3.30;;
12314;SDS011;23886;46.614;14.276;2022-10-03T00:32:25;5.53;;;3.30;;
12314;SDS011;23886;46.614;14.276;2022-10-03T00:35:11;4.60;;;2.97;;
12314;SDS011;23886;46.614;14.276;2022-10-03T00:37:53;5.20;;;3.30;;
12314;SDS011;23886;46.614;14.276;2022-10-03T00:53:04;8.13;;;3.67;;
12314;SDS011;23886;46.614;14.276;2022-10-03T00:55:53;5.63;;;3.77;;
12314;SDS011;23886;46.614;14.276;2022-10-03T00:58:42;5.83;;;3.57;;
12314;SDS011;23886;46.614;14.276;2022-10-03T01:01:20;6.10;;;3.73;;
12314;SDS011;23886;46.614;14.276;2022-10-03T01:03:54;8.83;;;3.83;;
12314;SDS011;23886;46.614;14.276;2022-10-03T01:06:33;7.17;;;3.40;;
12314;SDS011;23886;46.614;14.276;2022-10-03T01:09:13;8.10;;;3.37;;
12314;SDS011;23886;46.614;14.276;2022-10-03T01:12:02;5.10;;;3.63;;
12314;SDS011;23886;46.614;14.276;2022-10-03T01:14:46;3.90;;;3.20;;
12314;SDS011;23886;46.614;14.276;2022-10-03T01:17:40;3.53;;;3.10;;
12314;SDS011;23886;46.614;14.276;2022-10-03T01:20:22;5.90;;;3.43;;
12314;SDS011;23886;46.614;14.276;2022-10-03T01:26:11;3.93;;;3.30;;
12314;SDS011;23886;46.614;14.276;2022-10-03T01:28:50;6.17;;;3.80;;
12314;SDS011;23886;46.614;14.276;2022-10-03T01:31:40;3.47;;;2.90;;
12314;SDS011;23886;46.614;14.276;2022-10-03T01:34:14;5.03;;;3.20;;
12314;SDS011;23886;46.614;14.276;2022-10-03T01:36:51;6.33;;;3.70;;
12314;SDS011;23886;46.614;14.276;2022-10-03T01:39:25;4.47;;;3.20;;
12314;SDS011;23886;46.614;14.276;2022-10-03T01:41:58;3.40;;;3.10;;
12314;SDS011;23886;46.614;14.276;2022-10-03T01:44:35;3.77;;;2.97;;
12314;SDS011;23886;46.614;14.276;2022-10-03T01:47:14;4.77;;;3.07;;
12314;SDS011;23886;46.614;14.276;2022-10-03T01:49:50;5.53;;;2.97;;
12314;SDS011;23886;46.614;14.276;2022-10-03T01:52:23;4.40;;;3.20;;
12314;SDS011;23886;46.614;14.276;2022-10-03T01:54:59;7.47;;;3.17;;
12314;SDS011;23886;46.614;14.276;2022-10-03T01:57:32;3.87;;;3.20;;
12314;SDS011;23886;46.614;14.276;2022-10-03T02:00:06;4.30;;;3.07;;
12314;SDS011;23886;46.614;14.276;2022-10-03T02:02:38;7.07;;;3.13;;
12314;SDS011;23886;46.614;14.276;2022-10-03T02:05:14;5.80;;;3.37;;
12314;SDS011;23886;46.614;14.276;2022-10-03T02:07:48;3.67;;;3.03;;
12314;SDS011;23886;46.614;14.276;2022-10-03T02:10:21;5.30;;;3.27;;
12314;SDS011;23886;46.614;14.276;2022-10-03T02:12:58;7.30;;;3.57;;
12314;SDS011;23886;46.614;14.276;2022-10-03T02:15:39;4.80;;;3.33;;
12314;SDS011;23886;46.614;14.276;2022-10-03T02:18:14;5.40;;;3.00;;
12314;SDS011;23886;46.614;14.276;2022-10-03T02:20:50;5.83;;;3.10;;
12314;SDS011;23886;46.614;14.276;2022-10-03T02:23:35;4.30;;;3.00;;
12314;SDS011;23886;46.614;14.276;2022-10-03T02:26:09;4.27;;;2.97;;
12314;SDS011;23886;46.614;14.276;2022-10-03T02:29:02;2.87;;;2.67;;
12314;SDS011;23886;46.614;14.276;2022-10-03T02:31:55;5.07;;;3.20;;
12314;SDS011;23886;46.614;14.276;2022-10-03T02:38:17;6.97;;;3.20;;
12314;SDS011;23886;46.614;14.276;2022-10-03T02:41:11;6.00;;;3.50;;
12314;SDS011;23886;46.614;14.276;2022-10-03T02:47:16;9.33;;;3.67;;
12314;SDS011;23886;46.614;14.276;2022-10-03T02:59:37;6.87;;;3.60;;
12314;SDS011;23886;46.614;14.276;2022-10-03T03:02:37;4.77;;;3.20;;
12314;SDS011;23886;46.614;14.276;2022-10-03T03:05:52;3.80;;;3.00;;
12314;SDS011;23886;46.614;14.276;2022-10-03T03:11:33;4.10;;;3.37;;
12314;SDS011;23886;46.614;14.276;2022-10-03T03:14:54;5.00;;;3.23;;
12314;SDS011;23886;46.614;14.276;2022-10-03T03:17:43;3.67;;;2.90;;
12314;SDS011;23886;46.614;14.276;2022-10-03T03:20:23;4.63;;;3.10;;
12314;SDS011;23886;46.614;14.276;2022-10-03T03:23:02;5.93;;;3.10;;
12314;SDS011;23886;46.614;14.276;2022-10-03T03:25:52;7.10;;;3.13;;
12314;SDS011;23886;46.614;14.276;2022-10-03T03:28:32;3.90;;;2.77;;
12314;SDS011;23886;46.614;14.276;2022-10-03T03:31:08;3.57;;;2.97;;
12314;SDS011;23886;46.614;14.276;2022-10-03T03:33:43;3.20;;;2.87;;
12314;SDS011;23886;46.614;14.276;2022-10-03T03:36:22;4.73;;;2.63;;
12314;SDS011;23886;46.614;14.276;2022-10-03T03:38:56;7.20;;;5.83;;
12314;SDS011;23886;46.614;14.276;2022-10-03T03:41:39;5.60;;;3.03;;
12314;SDS011;23886;46.614;14.276;2022-10-03T03:47:29;5.50;;;3.20;;
12314;SDS011;23886;46.614;14.276;2022-10-03T03:53:05;6.10;;;3.13;;
12314;SDS011;23886;46.614;14.276;2022-10-03T03:56:09;7.63;;;3.43;;
12314;SDS011;23886;46.614;14.276;2022-10-03T03:58:51;4.07;;;3.23;;
12314;SDS011;23886;46.614;14.276;2022-10-03T04:04:27;4.50;;;4.10;;
12314;SDS011;23886;46.614;14.276;2022-10-03T04:07:15;5.67;;;3.77;;
12314;SDS011;23886;46.614;14.276;2022-10-03T04:15:39;4.87;;;4.40;;
12314;SDS011;23886;46.614;14.276;2022-10-03T04:18:20;6.07;;;4.80;;
12314;SDS011;23886;46.614;14.276;2022-10-03T04:21:31;9.73;;;5.03;;
12314;SDS011;23886;46.614;14.276;2022-10-03T04:27:06;6.80;;;4.40;;
12314;SDS011;23886;46.614;14.276;2022-10-03T04:29:51;7.93;;;4.70;;
12314;SDS011;23886;46.614;14.276;2022-10-03T04:32:30;8.17;;;4.50;;
12314;SDS011;23886;46.614;14.276;2022-10-03T04:38:20;9.30;;;4.80;;
12314;SDS011;23886;46.614;14.276;2022-10-03T04:41:07;6.10;;;4.73;;
12314;SDS011;23886;46.614;14.276;2022-10-03T04:43:44;6.33;;;4.70;;
12314;SDS011;23886;46.614;14.276;2022-10-03T04:46:22;5.57;;;4.90;;
12314;SDS011;23886;46.614;14.276;2022-10-03T04:48:55;6.17;;;5.67;;
12314;SDS011;23886;46.614;14.276;2022-10-03T04:51:32;7.10;;;6.40;;
12314;SDS011;23886;46.614;14.276;2022-10-03T04:54:13;6.50;;;5.50;;
12314;SDS011;23886;46.614;14.276;2022-10-03T04:56:49;6.83;;;6.20;;
12314;SDS011;23886;46.614;14.276;2022-10-03T04:59:34;10.73;;;8.07;;
12314;SDS011;23886;46.614;14.276;2022-10-03T05:02:17;6.87;;;6.17;;
12314;SDS011;23886;46.614;14.276;2022-10-03T05:04:57;7.87;;;6.47;;
12314;SDS011;23886;46.614;14.276;2022-10-03T05:07:37;7.47;;;6.10;;
12314;SDS011;23886;46.614;14.276;2022-10-03T05:10:29;7.67;;;6.00;;
12314;SDS011;23886;46.614;14.276;2022-10-03T05:13:17;5.53;;;4.87;;
12314;SDS011;23886;46.614;14.276;2022-10-03T05:15:55;4.67;;;4.27;;
12314;SDS011;23886;46.614;14.276;2022-10-03T05:18:28;5.23;;;4.83;;
12314;SDS011;23886;46.614;14.276;2022-10-03T05:21:00;5.10;;;4.60;;
12314;SDS011;23886;46.614;14.276;2022-10-03T05:23:40;4.77;;;4.23;;
12314;SDS011;23886;46.614;14.276;2022-10-03T05:26:17;5.00;;;4.23;;
12314;SDS011;23886;46.614;14.276;2022-10-03T05:28:56;4.63;;;4.03;;
12314;SDS011;23886;46.614;14.276;2022-10-03T05:31:33;6.97;;;3.80;;
12314;SDS011;23886;46.614;14.276;2022-10-03T05:34:11;5.37;;;3.67;;
12314;SDS011;23886;46.614;14.276;2022-10-03T05:37:03;3.90;;;3.47;;
12314;SDS011;23886;46.614;14.276;2022-10-03T05:39:44;4.50;;;3.80;;
12314;SDS011;23886;46.614;14.276;2022-10-03T05:42:33;3.57;;;3.27;;
12314;SDS011;23886;46.614;14.276;2022-10-03T05:45:07;3.27;;;2.90;;
12314;SDS011;23886;46.614;14.276;2022-10-03T05:47:49;4.77;;;2.97;;
12314;SDS011;23886;46.614;14.276;2022-10-03T05:56:38;5.50;;;3.67;;
12314;SDS011;23886;46.614;14.276;2022-10-03T05:59:44;5.43;;;3.97;;
12314;SDS011;23886;46.614;14.276;2022-10-03T06:02:53;3.73;;;3.00;;
12314;SDS011;23886;46.614;14.276;2022-10-03T06:05:43;5.20;;;3.27;;
12314;SDS011;23886;46.614;14.276;2022-10-03T06:08:38;4.10;;;3.23;;
12314;SDS011;23886;46.614;14.276;2022-10-03T06:14:26;4.40;;;3.10;;
12314;SDS011;23886;46.614;14.276;2022-10-03T06:17:02;4.43;;;2.63;;
12314;SDS011;23886;46.614;14.276;2022-10-03T06:19:50;3.10;;;2.80;;
12314;SDS011;23886;46.614;14.276;2022-10-03T06:28:29;4.97;;;3.10;;
12314;SDS011;23886;46.614;14.276;2022-10-03T06:34:21;8.80;;;4.70;;
12314;SDS011;23886;46.614;14.276;2022-10-03T06:37:21;4.00;;;3.60;;
12314;SDS011;23886;46.614;14.276;2022-10-03T06:40:16;6.43;;;3.70;;
12314;SDS011;23886;46.614;14.276;2022-10-03T06:52:24;4.37;;;3.33;;
12314;SDS011;23886;46.614;14.276;2022-10-03T07:01:03;5.43;;;3.33;;
12314;SDS011;23886;46.614;14.276;2022-10-03T07:04:16;6.27;;;3.60;;
12314;SDS011;23886;46.614;14.276;2022-10-03T07:10:18;5.90;;;3.50;;
12314;SDS011;23886;46.614;14.276;2022-10-03T07:16:06;5.20;;;3.97;;
12314;SDS011;23886;46.614;14.276;2022-10-03T07:19:02;6.83;;;3.93;;
12314;SDS011;23886;46.614;14.276;2022-10-03T07:25:20;4.67;;;3.00;;
12314;SDS011;23886;46.614;14.276;2022-10-03T07:31:18;3.93;;;3.00;;
12314;SDS011;23886;46.614;14.276;2022-10-03T07:36:54;4.83;;;3.60;;
12314;SDS011;23886;46.614;14.276;2022-10-03T07:46:14;6.27;;;3.00;;
12314;SDS011;23886;46.614;14.276;2022-10-03T07:49:09;3.60;;;3.30;;
12314;SDS011;23886;46.614;14.276;2022-10-03T07:51:49;7.27;;;3.40;;
12314;SDS011;23886;46.614;14.276;2022-10-03T07:54:35;3.43;;;3.13;;
12314;SDS011;23886;46.614;14.276;2022-10-03T07:57:17;3.63;;;3.33;;
12314;SDS011;23886;46.614;14.276;2022-10-03T08:00:10;4.27;;;3.37;;
12314;SDS011;23886;46.614;14.276;2022-10-03T08:02:58;4.27;;;3.43;;
12314;SDS011;23886;46.614;14.276;2022-10-03T08:11:52;3.23;;;3.03;;
12314;SDS011;23886;46.614;14.276;2022-10-03T08:14:45;3.23;;;2.80;;
12314;SDS011;23886;46.614;14.276;2022-10-03T08:20:45;3.53;;;2.83;;
12314;SDS011;23886;46.614;14.276;2022-10-03T08:26:12;3.70;;;2.80;;
12314;SDS011;23886;46.614;14.276;2022-10-03T08:32:14;4.17;;;2.83;;
12314;SDS011;23886;46.614;14.276;2022-10-03T08:54:33;3.13;;;2.93;;
12314;SDS011;23886;46.614;14.276;2022-10-03T08:57:24;4.80;;;2.93;;
12314;SDS011;23886;46.614;14.276;2022-10-03T09:00:15;5.40;;;3.17;;
12314;SDS011;23886;46.614;14.276;2022-10-03T09:06:02;4.30;;;3.10;;
12314;SDS011;23886;46.614;14.276;2022-10-03T09:09:00;3.97;;;2.80;;
12314;SDS011;23886;46.614;14.276;2022-10-03T09:14:54;3.33;;;2.60;;
12314;SDS011;23886;46.614;14.276;2022-10-03T09:17:48;2.70;;;2.50;;
12314;SDS011;23886;46.614;14.276;2022-10-03T09:24:04;2.60;;;2.40;;
12314;SDS011;23886;46.614;14.276;2022-10-03T09:27:07;4.43;;;3.00;;
12314;SDS011;23886;46.614;14.276;2022-10-03T09:36:25;2.60;;;2.30;;
12314;SDS011;23886;46.614;14.276;2022-10-03T09:39:53;2.60;;;2.23;;
12314;SDS011;23886;46.614;14.276;2022-10-03T09:45:46;2.23;;;2.03;;
12314;SDS011;23886;46.614;14.276;2022-10-03T09:48:36;3.90;;;2.30;;
12314;SDS011;23886;46.614;14.276;2022-10-03T09:51:31;2.50;;;2.30;;
12314;SDS011;23886;46.614;14.276;2022-10-03T09:54:11;2.20;;;2.00;;
12314;SDS011;23886;46.614;14.276;2022-10-03T09:57:01;2.20;;;2.00;;
12314;SDS011;23886;46.614;14.276;2022-10-03T09:59:59;3.03;;;2.10;;
12314;SDS011;23886;46.614;14.276;2022-10-03T10:02:56;2.87;;;2.00;;
12314;SDS011;23886;46.614;14.276;2022-10-03T10:06:19;2.27;;;2.07;;
12314;SDS011;23886;46.614;14.276;2022-10-03T10:09:24;3.17;;;2.27;;
12314;SDS011;23886;46.614;14.276;2022-10-03T10:12:32;1.93;;;1.30;;
12314;SDS011;23886;46.614;14.276;2022-10-03T10:15:17;1.77;;;1.60;;
12314;SDS011;23886;46.614;14.276;2022-10-03T10:18:12;2.37;;;1.80;;
12314;SDS011;23886;46.614;14.276;2022-10-03T10:27:14;1.53;;;1.43;;
12314;SDS011;23886;46.614;14.276;2022-10-03T10:30:07;2.83;;;1.60;;
12314;SDS011;23886;46.614;14.276;2022-10-03T10:51:48;1.70;;;1.60;;
12314;SDS011;23886;46.614;14.276;2022-10-03T10:54:47;2.17;;;1.50;;
12314;SDS011;23886;46.614;14.276;2022-10-03T11:04:08;1.33;;;1.23;;
12314;SDS011;23886;46.614;14.276;2022-10-03T11:07:07;3.07;;;1.13;;
12314;SDS011;23886;46.614;14.276;2022-10-03T11:09:48;1.37;;;1.00;;
12314;SDS011;23886;46.614;14.276;2022-10-03T11:26:06;1.57;;;1.17;;
12314;SDS011;23886;46.614;14.276;2022-10-03T11:29:15;1.53;;;1.10;;
12314;SDS011;23886;46.614;14.276;2022-10-03T11:38:14;2.87;;;1.37;;
12314;SDS011;23886;46.614;14.276;2022-10-03T11:40:50;1.57;;;0.93;;
12314;SDS011;23886;46.614;14.276;2022-10-03T11:43:36;2.50;;;1.50;;
12314;SDS011;23886;46.614;14.276;2022-10-03T11:46:19;4.47;;;1.50;;
12314;SDS011;23886;46.614;14.276;2022-10-03T11:48:50;1.90;;;1.03;;
12314;SDS011;23886;46.614;14.276;2022-10-03T11:51:24;1.20;;;1.10;;
12314;SDS011;23886;46.614;14.276;2022-10-03T11:54:05;0.87;;;0.80;;
12314;SDS011;23886;46.614;14.276;2022-10-03T11:56:43;1.43;;;1.17;;
12314;SDS011;23886;46.614;14.276;2022-10-03T11:59:20;1.40;;;1.10;;
12314;SDS011;23886;46.614;14.276;2022-10-03T12:02:04;1.00;;;0.90;;
12314;SDS011;23886;46.614;14.276;2022-10-03T12:04:39;0.70;;;0.70;;
12314;SDS011;23886;46.614;14.276;2022-10-03T12:07:17;1.17;;;1.07;;
12314;SDS011;23886;46.614;14.276;2022-10-03T12:10:19;2.30;;;0.90;;
12314;SDS011;23886;46.614;14.276;2022-10-03T12:12:59;0.87;;;0.80;;
12314;SDS011;23886;46.614;14.276;2022-10-03T12:15:34;0.80;;;0.80;;
12314;SDS011;23886;46.614;14.276;2022-10-03T12:18:08;1.77;;;0.90;;
12314;SDS011;23886;46.614;14.276;2022-10-03T12:26:37;1.63;;;0.83;;
12314;SDS011;23886;46.614;14.276;2022-10-03T12:29:12;0.90;;;0.80;;
12314;SDS011;23886;46.614;14.276;2022-10-03T12:31:44;0.77;;;0.67;;
12314;SDS011;23886;46.614;14.276;2022-10-03T12:34:29;3.47;;;1.10;;
12314;SDS011;23886;46.614;14.276;2022-10-03T12:40:01;1.83;;;0.90;;
12314;SDS011;23886;46.614;14.276;2022-10-03T12:42:37;1.83;;;1.00;;
12314;SDS011;23886;46.614;14.276;2022-10-03T12:45:12;1.37;;;0.77;;
12314;SDS011;23886;46.614;14.276;2022-10-03T12:47:54;1.08;;;0.90;;
12314;SDS011;23886;46.614;14.276;2022-10-03T12:50:38;0.73;;;0.73;;
12314;SDS011;23886;46.614;14.276;2022-10-03T12:53:21;1.10;;;1.00;;
12314;SDS011;23886;46.614;14.276;2022-10-03T12:56:02;0.90;;;0.70;;
12314;SDS011;23886;46.614;14.276;2022-10-03T12:58:35;1.80;;;0.83;;
12314;SDS011;23886;46.614;14.276;2022-10-03T13:01:10;1.23;;;0.80;;
12314;SDS011;23886;46.614;14.276;2022-10-03T13:03:49;0.60;;;0.60;;
12314;SDS011;23886;46.614;14.276;2022-10-03T13:06:22;0.90;;;0.80;;
12314;SDS011;23886;46.614;14.276;2022-10-03T13:09:20;0.70;;;0.70;;
12314;SDS011;23886;46.614;14.276;2022-10-03T13:12:00;1.07;;;0.80;;
12314;SDS011;23886;46.614;14.276;2022-10-03T13:14:41;1.47;;;0.67;;
12314;SDS011;23886;46.614;14.276;2022-10-03T13:17:54;1.10;;;0.80;;
12314;SDS011;23886;46.614;14.276;2022-10-03T13:20:27;1.17;;;0.97;;
12314;SDS011;23886;46.614;14.276;2022-10-03T13:23:00;1.30;;;0.88;;
12314;SDS011;23886;46.614;14.276;2022-10-03T13:25:33;1.08;;;0.77;;
12314;SDS011;23886;46.614;14.276;2022-10-03T13:28:06;0.70;;;0.70;;
12314;SDS011;23886;46.614;14.276;2022-10-03T13:30:43;1.17;;;0.80;;
12314;SDS011;23886;46.614;14.276;2022-10-03T13:33:14;1.10;;;0.73;;
12314;SDS011;23886;46.614;14.276;2022-10-03T13:35:45;0.85;;;0.77;;
12314;SDS011;23886;46.614;14.276;2022-10-03T13:38:28;0.70;;;0.70;;
12314;SDS011;23886;46.614;14.276;2022-10-03T13:41:21;2.40;;;1.08;;
12314;SDS011;23886;46.614;14.276;2022-10-03T13:43:55;0.80;;;0.80;;
12314;SDS011;23886;46.614;14.276;2022-10-03T13:46:28;0.45;;;0.45;;
12314;SDS011;23886;46.614;14.276;2022-10-03T13:49:04;0.65;;;0.60;;
12314;SDS011;23886;46.614;14.276;2022-10-03T13:51:40;0.93;;;0.73;;
12314;SDS011;23886;46.614;14.276;2022-10-03T13:54:15;0.85;;;0.63;;
12314;SDS011;23886;46.614;14.276;2022-10-03T13:56:58;1.27;;;0.73;;
12314;SDS011;23886;46.614;14.276;2022-10-03T13:59:39;0.60;;;0.60;;
12314;SDS011;23886;46.614;14.276;2022-10-03T14:02:23;1.27;;;0.80;;
12314;SDS011;23886;46.614;14.276;2022-10-03T14:05:24;1.80;;;0.70;;
12314;SDS011;23886;46.614;14.276;2022-10-03T14:08:26;0.80;;;0.80;;
12314;SDS011;23886;46.614;14.276;2022-10-03T14:11:11;1.73;;;0.85;;
12314;SDS011;23886;46.614;14.276;2022-10-03T14:13:52;1.08;;;0.93;;
12314;SDS011;23886;46.614;14.276;2022-10-03T14:16:39;1.30;;;0.90;;
12314;SDS011;23886;46.614;14.276;2022-10-03T14:19:19;1.10;;;0.80;;
12314;SDS011;23886;46.614;14.276;2022-10-03T14:21:59;1.30;;;0.82;;
12314;SDS011;23886;46.614;14.276;2022-10-03T14:24:45;1.38;;;0.70;;
12314;SDS011;23886;46.614;14.276;2022-10-03T14:27:31;1.30;;;0.68;;
12314;SDS011;23886;46.614;14.276;2022-10-03T14:30:17;1.83;;;1.40;;
12314;SDS011;23886;46.614;14.276;2022-10-03T14:32:52;1.40;;;1.30;;
12314;SDS011;23886;46.614;14.276;2022-10-03T14:35:32;1.52;;;0.90;;
12314;SDS011;23886;46.614;14.276;2022-10-03T14:38:12;0.70;;;0.70;;
12314;SDS011;23886;46.614;14.276;2022-10-03T14:40:46;0.77;;;0.65;;
12314;SDS011;23886;46.614;14.276;2022-10-03T14:43:27;0.70;;;0.70;;
12314;SDS011;23886;46.614;14.276;2022-10-03T14:46:02;1.60;;;1.27;;
12314;SDS011;23886;46.614;14.276;2022-10-03T14:48:33;3.08;;;1.58;;
12314;SDS011;23886;46.614;14.276;2022-10-03T14:51:07;3.17;;;1.30;;
12314;SDS011;23886;46.614;14.276;2022-10-03T14:53:38;1.95;;;1.00;;
12314;SDS011;23886;46.614;14.276;2022-10-03T14:56:12;1.30;;;0.88;;
12314;SDS011;23886;46.614;14.276;2022-10-03T14:58:45;1.50;;;0.80;;
12314;SDS011;23886;46.614;14.276;2022-10-03T15:01:15;0.95;;;0.75;;
12314;SDS011;23886;46.614;14.276;2022-10-03T15:03:51;1.27;;;0.82;;
12314;SDS011;23886;46.614;14.276;2022-10-03T15:06:37;1.60;;;1.00;;
12314;SDS011;23886;46.614;14.276;2022-10-03T15:09:19;1.75;;;1.00;;
12314;SDS011;23886;46.614;14.276;2022-10-03T15:11:51;1.17;;;0.80;;
12314;SDS011;23886;46.614;14.276;2022-10-03T15:14:23;2.33;;;1.40;;
12314;SDS011;23886;46.614;14.276;2022-10-03T15:16:53;1.17;;;0.95;;
12314;SDS011;23886;46.614;14.276;2022-10-03T15:19:23;1.33;;;0.93;;
12314;SDS011;23886;46.614;14.276;2022-10-03T15:22:11;3.07;;;1.10;;
12314;SDS011;23886;46.614;14.276;2022-10-03T15:24:49;1.30;;;1.20;;
12314;SDS011;23886;46.614;14.276;2022-10-03T15:27:18;2.53;;;1.33;;
12314;SDS011;23886;46.614;14.276;2022-10-03T15:29:49;2.37;;;1.87;;
12314;SDS011;23886;46.614;14.276;2022-10-03T15:32:20;3.80;;;1.50;;
12314;SDS011;23886;46.614;14.276;2022-10-03T15:34:51;3.13;;;1.40;;
12314;SDS011;23886;46.614;14.276;2022-10-03T15:37:23;2.93;;;1.53;;
12314;SDS011;23886;46.614;14.276;2022-10-03T15:39:58;1.67;;;1.10;;
12314;SDS011;23886;46.614;14.276;2022-10-03T15:42:28;2.37;;;1.47;;
12314;SDS011;23886;46.614;14.276;2022-10-03T15:44:57;1.83;;;1.10;;
12314;SDS011;23886;46.614;14.276;2022-10-03T15:47:30;2.17;;;1.40;;
12314;SDS011;23886;46.614;14.276;2022-10-03T15:49:59;3.37;;;1.50;;
12314;SDS011;23886;46.614;14.276;2022-10-03T15:52:34;2.77;;;1.40;;
12314;SDS011;23886;46.614;14.276;2022-10-03T15:55:05;3.73;;;1.73;;
12314;SDS011;23886;46.614;14.276;2022-10-03T15:57:42;2.47;;;1.80;;
12314;SDS011;23886;46.614;14.276;2022-10-03T16:00:18;3.07;;;1.60;;
12314;SDS011;23886;46.614;14.276;2022-10-03T16:02:49;1.97;;;1.43;;
12314;SDS011;23886;46.614;14.276;2022-10-03T16:05:23;2.47;;;1.70;;
12314;SDS011;23886;46.614;14.276;2022-10-03T16:07:55;5.27;;;2.10;;
12314;SDS011;23886;46.614;14.276;2022-10-03T16:10:27;2.63;;;1.70;;
12314;SDS011;23886;46.614;14.276;2022-10-03T16:12:59;1.97;;;1.70;;
12314;SDS011;23886;46.614;14.276;2022-10-03T16:15:37;1.87;;;1.43;;
12314;SDS011;23886;46.614;14.276;2022-10-03T16:21:09;2.43;;;1.70;;
12314;SDS011;23886;46.614;14.276;2022-10-03T16:23:41;2.20;;;1.97;;
12314;SDS011;23886;46.614;14.276;2022-10-03T16:26:11;4.23;;;1.80;;
12314;SDS011;23886;46.614;14.276;2022-10-03T16:28:48;3.63;;;2.07;;
12314;SDS011;23886;46.614;14.276;2022-10-03T16:31:18;3.70;;;2.40;;
12314;SDS011;23886;46.614;14.276;2022-10-03T16:33:48;3.87;;;2.70;;
12314;SDS011;23886;46.614;14.276;2022-10-03T16:36:19;15.97;;;8.07;;
12314;SDS011;23886;46.614;14.276;2022-10-03T16:38:52;15.30;;;7.50;;
12314;SDS011;23886;46.614;14.276;2022-10-03T16:41:23;8.53;;;5.17;;
12314;SDS011;23886;46.614;14.276;2022-10-03T16:43:56;10.40;;;5.30;;
12314;SDS011;23886;46.614;14.276;2022-10-03T16:46:25;9.43;;;4.40;;
12314;SDS011;23886;46.614;14.276;2022-10-03T16:48:57;7.80;;;4.20;;
12314;SDS011;23886;46.614;14.276;2022-10-03T16:51:45;6.83;;;4.03;;
12314;SDS011;23886;46.614;14.276;2022-10-03T16:54:21;5.77;;;3.70;;
12314;SDS011;23886;46.614;14.276;2022-10-03T16:56:49;4.50;;;3.27;;
12314;SDS011;23886;46.614;14.276;2022-10-03T16:59:21;6.90;;;3.33;;
12314;SDS011;23886;46.614;14.276;2022-10-03T17:01:50;5.20;;;3.90;;
12314;SDS011;23886;46.614;14.276;2022-10-03T17:04:21;6.47;;;4.63;;
12314;SDS011;23886;46.614;14.276;2022-10-03T17:06:50;7.57;;;4.20;;
12314;SDS011;23886;46.614;14.276;2022-10-03T17:09:22;5.97;;;3.50;;
12314;SDS011;23886;46.614;14.276;2022-10-03T17:11:54;8.90;;;4.03;;
12314;SDS011;23886;46.614;14.276;2022-10-03T17:14:23;6.27;;;3.80;;
12314;SDS011;23886;46.614;14.276;2022-10-03T17:16:54;5.13;;;3.20;;
12314;SDS011;23886;46.614;14.276;2022-10-03T17:19:28;6.03;;;3.30;;
12314;SDS011;23886;46.614;14.276;2022-10-03T17:22:02;4.43;;;2.80;;
12314;SDS011;23886;46.614;14.276;2022-10-03T17:24:40;4.83;;;2.90;;
12314;SDS011;23886;46.614;14.276;2022-10-03T17:27:14;5.23;;;3.33;;
12314;SDS011;23886;46.614;14.276;2022-10-03T17:29:47;7.27;;;5.60;;
12314;SDS011;23886;46.614;14.276;2022-10-03T17:32:21;7.83;;;4.60;;
12314;SDS011;23886;46.614;14.276;2022-10-03T17:34:53;6.03;;;4.70;;
12314;SDS011;23886;46.614;14.276;2022-10-03T17:40:26;10.00;;;6.20;;
12314;SDS011;23886;46.614;14.276;2022-10-03T17:43:09;8.07;;;5.23;;
12314;SDS011;23886;46.614;14.276;2022-10-03T17:45:44;9.03;;;5.83;;
12314;SDS011;23886;46.614;14.276;2022-10-03T17:48:19;8.63;;;5.23;;
12314;SDS011;23886;46.614;14.276;2022-10-03T17:50:51;8.00;;;5.07;;
12314;SDS011;23886;46.614;14.276;2022-10-03T17:53:23;8.87;;;5.30;;
12314;SDS011;23886;46.614;14.276;2022-10-03T17:55:55;5.77;;;4.13;;
12314;SDS011;23886;46.614;14.276;2022-10-03T17:58:24;6.67;;;4.53;;
12314;SDS011;23886;46.614;14.276;2022-10-03T18:01:05;6.97;;;4.60;;
12314;SDS011;23886;46.614;14.276;2022-10-03T18:03:38;8.57;;;5.60;;
12314;SDS011;23886;46.614;14.276;2022-10-03T18:09:06;6.00;;;4.50;;
12314;SDS011;23886;46.614;14.276;2022-10-03T18:11:37;5.33;;;4.53;;
12314;SDS011;23886;46.614;14.276;2022-10-03T18:14:10;6.47;;;4.33;;
12314;SDS011;23886;46.614;14.276;2022-10-03T18:16:44;4.70;;;4.20;;
12314;SDS011;23886;46.614;14.276;2022-10-03T18:19:20;6.60;;;4.60;;
12314;SDS011;23886;46.614;14.276;2022-10-03T18:21:59;6.90;;;4.60;;
12314;SDS011;23886;46.614;14.276;2022-10-03T18:24:39;6.53;;;4.60;;
12314;SDS011;23886;46.614;14.276;2022-10-03T18:27:25;6.73;;;4.50;;
12314;SDS011;23886;46.614;14.276;2022-10-03T18:30:13;9.10;;;5.80;;
12314;SDS011;23886;46.614;14.276;2022-10-03T18:32:44;9.47;;;6.50;;
12314;SDS011;23886;46.614;14.276;2022-10-03T18:35:14;7.63;;;5.80;;
12314;SDS011;23886;46.614;14.276;2022-10-03T18:37:51;7.73;;;5.93;;
12314;SDS011;23886;46.614;14.276;2022-10-03T18:40:40;7.10;;;4.60;;
12314;SDS011;23886;46.614;14.276;2022-10-03T18:43:21;8.17;;;4.43;;
12314;SDS011;23886;46.614;14.276;2022-10-03T18:45:59;8.90;;;5.33;;
12314;SDS011;23886;46.614;14.276;2022-10-03T18:48:32;9.77;;;4.87;;
12314;SDS011;23886;46.614;14.276;2022-10-03T18:51:05;9.33;;;5.10;;
12314;SDS011;23886;46.614;14.276;2022-10-03T18:53:38;6.67;;;5.40;;
12314;SDS011;23886;46.614;14.276;2022-10-03T18:56:11;11.93;;;6.63;;
12314;SDS011;23886;46.614;14.276;2022-10-03T18:58:47;8.07;;;6.27;;
12314;SDS011;23886;46.614;14.276;2022-10-03T19:01:27;9.73;;;6.30;;
12314;SDS011;23886;46.614;14.276;2022-10-03T19:04:03;8.70;;;6.00;;
12314;SDS011;23886;46.614;14.276;2022-10-03T19:06:33;9.60;;;6.13;;
12314;SDS011;23886;46.614;14.276;2022-10-03T19:09:04;9.07;;;6.33;;
12314;SDS011;23886;46.614;14.276;2022-10-03T19:11:40;11.17;;;5.87;;
12314;SDS011;23886;46.614;14.276;2022-10-03T19:14:15;8.50;;;5.87;;
12314;SDS011;23886;46.614;14.276;2022-10-03T19:16:58;9.30;;;5.73;;
12314;SDS011;23886;46.614;14.276;2022-10-03T19:19:46;8.70;;;5.40;;
12314;SDS011;23886;46.614;14.276;2022-10-03T19:22:18;7.43;;;4.93;;
12314;SDS011;23886;46.614;14.276;2022-10-03T19:24:50;5.53;;;4.30;;
12314;SDS011;23886;46.614;14.276;2022-10-03T19:27:18;5.60;;;3.67;;
12314;SDS011;23886;46.614;14.276;2022-10-03T19:29:51;8.37;;;4.53;;
12314;SDS011;23886;46.614;14.276;2022-10-03T19:32:22;4.53;;;4.07;;
12314;SDS011;23886;46.614;14.276;2022-10-03T19:34:52;7.30;;;4.10;;
12314;SDS011;23886;46.614;14.276;2022-10-03T19:37:31;5.10;;;4.60;;
12314;SDS011;23886;46.614;14.276;2022-10-03T19:40:10;5.27;;;4.20;;
12314;SDS011;23886;46.614;14.276;2022-10-03T19:42:41;6.70;;;4.47;;
12314;SDS011;23886;46.614;14.276;2022-10-03T19:45:14;4.83;;;3.93;;
12314;SDS011;23886;46.614;14.276;2022-10-03T19:47:45;5.93;;;4.07;;
12314;SDS011;23886;46.614;14.276;2022-10-03T19:50:17;7.60;;;3.97;;